Impacts TAF Board INFO
FOR SITUATIONAL AWARENESS. NOT TO BE USED FOR FLIGHT PLANNING PURPOSES.
IDs:

KSLC - Salt Lake City Intl, UT, US

Issued at 2102 UTC 25 May 2018
Updated at 2207 UTC 25 May 2018
Potential Impact None Slight Moderate High
Time<<26/23Z 27/00Z 27/01Z 27/02Z 27/03Z 27/04Z 27/05Z 27/06Z 27/07Z 27/08Z 27/09Z 27/10Z 27/11Z
Type PRVL
VIS >6
CIG --
Cover SKC
FltCat VFR
WX --
WDir 150
WSpd 11
WGst --

Raw TAF
KSLC 252102Z 2521/2624 17011G17KT P6SM SKC
  FM252200 33008KT P6SM SKC
  FM260300 15011KT P6SM SKC


METAR Board
Radar Display
Forecast Discussion

FOR SITUATIONAL AWARENESS. NOT TO BE USED FOR FLIGHT PLANNING PURPOSES.